All Star Atlas — H3OV — position and weather

sailwx.info

Track history (hours):
 
Tides and Currents Weather Stations Pressure Air Temp Water Temp Dewpoint Dewpoint Depression Visibility Wind Speed Wind Dir Waves Ship Positions

All Star Atlas

Last reported at 2018-Jun-21 00:54 UTC. Time now 2018-Jun-23 15:52 UTC.
Position N 58°42' W 003°49'.

Length 199 m; draft 10.8 m.

Type: Cargo ship. MMSI: 355737000.

Date/timePositionNaut miles runAvg speedWind from/ knotsBaromVisibWave heightAir tempDewpointWater temp
2018-Jun-21 00:54N 58°42' W 003°49'11 9.7
2018-Jun-20 23:48N 58°43' W 003°29'310.4
2018-Jun-20 23:31N 58°43' W 003°23'611.2
2018-Jun-20 23:01N 58°43' W 003°12'612.4
2018-Jun-20 22:30N 58°43' W 003°00'612.2
2018-Jun-20 22:01N 58°43' W 002°49'611.4
2018-Jun-20 21:30N 58°42' W 002°38'29110.3
2018-Jun-19 17:04N 57°49' E 006°27'3 8.6
2018-Jun-19 16:42N 57°49' E 006°33'2 8.4
2018-Jun-19 16:30N 57°48' E 006°36'4 8.3
2018-Jun-19 16:00N 57°47' E 006°44'4 8.7
2018-Jun-19 15:30N 57°47' E 006°52'4 8.8
2018-Jun-19 15:00N 57°47' E 007°00'5 9.4
2018-Jun-19 14:30N 57°47' E 007°09'5 9.8
2018-Jun-19 14:00N 57°47' E 007°18'5 9.8
2018-Jun-19 13:30N 57°47' E 007°28'510.1
2018-Jun-19 13:00N 57°47' E 007°37'510.1
2018-Jun-19 12:29N 57°47' E 007°47'510.1
2018-Jun-19 12:01N 57°47' E 007°56'510.1
2018-Jun-19 11:30N 57°47' E 008°06'610.0
2018-Jun-19 10:53N 57°47' E 008°17'81 9.1
2018-Jun-19 02:02N 57°47' E 010°48'010.4
2018-Jun-19 01:59N 57°47' E 010°49'510.0
2018-Jun-19 01:30N 57°43' E 010°55'510.5
2018-Jun-19 01:01N 57°40' E 011°02'510.5
2018-Jun-19 00:30N 57°36' E 011°09'510.4
2018-Jun-18 23:59N 57°32' E 011°16'5 9.9
2018-Jun-18 23:31N 57°29' E 011°23'5 9.6
2018-Jun-18 23:01N 57°25' E 011°27'510.2
2018-Jun-18 22:30N 57°20' E 011°31'510.2
2018-Jun-18 22:00N 57°15' E 011°34'118 9.7
2018-Jun-18 09:49N 55°19' E 011°03'410.8
2018-Jun-18 09:25N 55°15' E 011°05'4 9.3
2018-Jun-18 09:00N 55°11' E 011°04'510.2
2018-Jun-18 08:30N 55°07' E 010°59'511.0
2018-Jun-18 08:00N 55°01' E 010°59'510.3
2018-Jun-18 07:30N 54°57' E 010°55'510.2
2018-Jun-18 07:00N 54°52' E 010°50'5 9.6
2018-Jun-18 06:30N 54°48' E 010°50'510.5
2018-Jun-18 06:00N 54°43' E 010°47'510.0
2018-Jun-18 05:30N 54°39' E 010°52'510.0
2018-Jun-18 05:00N 54°36' E 010°60'510.1
2018-Jun-18 04:30N 54°36' E 011°09'510.5
2018-Jun-18 04:01N 54°34' E 011°17'610.9
2018-Jun-18 03:30N 54°32' E 011°25'510.8
2018-Jun-18 03:01N 54°29' E 011°34'510.6
2018-Jun-18 02:30N 54°27' E 011°42'510.7
2018-Jun-18 02:00N 54°26' E 011°51'511.0
2018-Jun-18 01:30N 54°26' E 012°00'511.0
2018-Jun-18 01:00N 54°26' E 012°10'510.4
2018-Jun-18 00:30N 54°31' E 012°14'510.2
2018-Jun-18 00:00N 54°36' E 012°17'5 9.7
2018-Jun-17 23:28N 54°39' E 012°24'510.3
2018-Jun-17 22:57N 54°42' E 012°31'3811.0
2018-Jun-17 19:33N 54°57' E 013°31'111.1
2018-Jun-17 19:28N 54°57' E 013°33'511.0
2018-Jun-17 19:00N 54°59' E 013°41'1411.1
2018-Jun-17 17:42N 55°05' E 014°04'210.9
2018-Jun-17 17:30N 55°07' E 014°07'511.0
2018-Jun-17 17:00N 55°11' E 014°13'510.8
2018-Jun-17 16:30N 55°15' E 014°20'510.8
2018-Jun-17 16:00N 55°19' E 014°26'610.8
2018-Jun-17 15:30N 55°23' E 014°32'510.6
2018-Jun-17 15:01N 55°27' E 014°39'510.5
2018-Jun-17 14:30N 55°29' E 014°47'510.2
2018-Jun-17 14:00N 55°32' E 014°55'510.3
2018-Jun-17 13:30N 55°34' E 015°02'610.4
2018-Jun-17 12:53N 55°37' E 015°13'510.7
2018-Jun-17 12:26N 55°39' E 015°20'710.9
2018-Jun-17 11:49N 55°41' E 015°32'4711.1
2018-Jun-17 07:36N 55°52' E 016°52'211.2
2018-Jun-17 07:26N 55°53' E 016°55'611.3
2018-Jun-17 06:52N 55°55' E 017°06'711.3
2018-Jun-17 06:16N 55°56' E 017°18'511.3
2018-Jun-17 05:48N 55°58' E 017°27'411.2
2018-Jun-17 05:29N 55°59' E 017°33'511.2
2018-Jun-17 05:01N 56°00' E 017°42'611.3
2018-Jun-17 04:30N 56°03' E 017°51'611.2
2018-Jun-17 04:00N 56°06' E 017°59'611.2
2018-Jun-17 03:30N 56°09' E 018°08'611.3
2018-Jun-17 03:00N 56°12' E 018°16'611.3
2018-Jun-17 02:31N 56°15' E 018°25'611.3
2018-Jun-17 02:00N 56°18' E 018°34'611.3
2018-Jun-17 01:30N 56°21' E 018°42'510.8
2018-Jun-17 01:00N 56°26' E 018°48'511.1
2018-Jun-17 00:30N 56°31' E 018°53'611.1
2018-Jun-17 00:00N 56°36' E 018°57'611.3
2018-Jun-16 23:30N 56°41' E 019°02'1011.3
2018-Jun-16 22:39N 56°49' E 019°11'211.4
2018-Jun-16 22:30N 56°51' E 019°12'9911.3
2018-Jun-16 13:43N 58°19' E 020°35'211.3
2018-Jun-16 13:30N 58°22' E 020°38'611.4
2018-Jun-16 12:59N 58°26' E 020°44'1511.5
2018-Jun-16 11:41N 58°39' E 020°59'311.5
2018-Jun-16 11:27N 58°41' E 021°02'611.4
2018-Jun-16 10:57N 58°46' E 021°08'6 8.3
2018-Jun-16 10:17N 58°51' E 021°15'2 9.0
2018-Jun-16 10:00N 58°52' E 021°18'611.3
2018-Jun-16 09:30N 58°57' E 021°24'611.3
2018-Jun-16 09:00N 59°02' E 021°30'611.1
2018-Jun-16 08:30N 59°06' E 021°37'611.0
2018-Jun-16 08:00N 59°10' E 021°44'511.0
2018-Jun-16 07:30N 59°14' E 021°53'611.0
2018-Jun-16 07:00N 59°17' E 022°01'511.0
2018-Jun-16 06:30N 59°20' E 022°10'611.1
2018-Jun-16 06:00N 59°24' E 022°18'611.0
2018-Jun-16 05:30N 59°27' E 022°27'510.9
2018-Jun-16 05:00N 59°30' E 022°36'611.1
2018-Jun-16 04:29N 59°31' E 022°47'510.9
2018-Jun-16 04:00N 59°33' E 022°57'511.0
2018-Jun-16 03:30N 59°35' E 023°07'511.0
2018-Jun-16 03:00N 59°36' E 023°18'511.0
2018-Jun-16 02:30N 59°38' E 023°28'611.0
2018-Jun-16 02:00N 59°39' E 023°39'611.1
2018-Jun-16 01:30N 59°41' E 023°49'511.0
2018-Jun-16 01:00N 59°42' E 023°59'510.9
2018-Jun-16 00:30N 59°44' E 024°10'611.1
2018-Jun-16 00:00N 59°46' E 024°20'611.2
2018-Jun-15 23:30N 59°47' E 024°31'611.3
2018-Jun-15 23:00N 59°48' E 024°42'510.9
2018-Jun-15 22:31N 59°50' E 024°53'611.1
2018-Jun-15 22:00N 59°51' E 025°03'611.2
2018-Jun-15 21:30N 59°52' E 025°14'511.0
2018-Jun-15 21:00N 59°53' E 025°25'611.0
2018-Jun-15 20:30N 59°54' E 025°36'510.9
2018-Jun-15 20:00N 59°55' E 025°47'710.9
2018-Jun-15 19:22N 59°56' E 025°60'410.8
2018-Jun-15 18:59N 59°57' E 026°08'510.7
2018-Jun-15 18:30N 59°59' E 026°18'610.7
2018-Jun-15 17:58N 60°00' E 026°29'510.6
2018-Jun-15 17:30N 60°01' E 026°39'611.2
2018-Jun-15 16:59N 60°00' E 026°50'612.2
2018-Jun-15 16:28N 59°60' E 027°03'511.0
2018-Jun-15 15:58N 60°02' E 027°12'4 9.6
2018-Jun-15 15:30N 60°05' E 027°20'511.0
2018-Jun-15 15:00N 60°07' E 027°30'611.2
2018-Jun-15 14:30N 60°10' E 027°39'510.6
2018-Jun-15 14:00N 60°12' E 027°50'611.1
2018-Jun-15 13:30N 60°10' E 028°00'611.0
2018-Jun-15 13:00N 60°09' E 028°11'510.9
2018-Jun-15 12:30N 60°06' E 028°21'611.1
2018-Jun-15 12:00N 60°04' E 028°31'4 8.1
2018-Jun-15 11:30N 60°01' E 028°37'510.5
2018-Jun-15 11:00N 59°56' E 028°34'5 9.5
2018-Jun-15 10:30N 59°52' E 028°29'611.7
2018-Jun-15 10:00N 59°47' E 028°25'4 7.7
2018-Jun-15 09:30N 59°43' E 028°25'1 2.4
2018-Jun-15 09:00N 59°41' E 028°26'0 0.0
2018-Jun-15 08:29N 59°42' E 028°26'0 0.0
2018-Jun-15 07:58N 59°41' E 028°26'0 0.0
2018-Jun-15 07:22N 59°42' E 028°26'0 0.0
2018-Jun-15 07:00N 59°41' E 028°26'0 0.0
2018-Jun-15 06:25N 59°42' E 028°26'0 0.0
2018-Jun-15 05:58N 59°41' E 028°26'0 0.0
2018-Jun-15 05:22N 59°42' E 028°26'0 0.0
2018-Jun-15 04:58N 59°42' E 028°26'0 0.0
2018-Jun-15 04:29N 59°41' E 028°26'0 0.0
2018-Jun-15 03:59N 59°42' E 028°26'0 0.0
2018-Jun-15 03:25N 59°41' E 028°26'0 0.0
2018-Jun-15 02:58N 59°42' E 028°26'0 0.0
2018-Jun-15 02:29N 59°41' E 028°26'0 0.0
2018-Jun-15 02:00N 59°41' E 028°26'0 0.0
2018-Jun-15 01:28N 59°42' E 028°26'0 0.0
2018-Jun-15 00:58N 59°42' E 028°26'0 0.0
2018-Jun-15 00:28N 59°42' E 028°26'0 0.0
2018-Jun-14 23:58N 59°41' E 028°26'0 0.0
2018-Jun-14 23:27N 59°42' E 028°26'0 0.0
2018-Jun-14 22:58N 59°41' E 028°26'0 0.0
2018-Jun-14 22:28N 59°42' E 028°26'0 0.0
2018-Jun-14 21:58N 59°41' E 028°26'0 0.0
2018-Jun-14 21:28N 59°41' E 028°26'0 0.0
2018-Jun-14 20:58N 59°42' E 028°26'0 0.0
2018-Jun-14 20:28N 59°42' E 028°26'0 0.0
2018-Jun-14 19:58N 59°41' E 028°26'0 0.0
2018-Jun-14 19:28N 59°41' E 028°26'0 0.0
2018-Jun-14 18:58N 59°42' E 028°26'0 0.0
2018-Jun-14 18:26N 59°41' E 028°26'0 0.0
2018-Jun-14 18:00N 59°42' E 028°26'0 0.0
2018-Jun-14 17:28N 59°41' E 028°26'0 0.0
2018-Jun-14 16:58N 59°41' E 028°26'0 0.0
2018-Jun-14 16:27N 59°41' E 028°26'0 0.0
2018-Jun-14 15:56N 59°42' E 028°26'0 0.0
2018-Jun-14 15:24N 59°41' E 028°26'0 0.0
2018-Jun-14 14:56N 59°41' E 028°26'0 0.0
2018-Jun-14 14:25N 59°42' E 028°26'0 0.0
2018-Jun-14 13:59N 59°41' E 028°26'0 0.0
2018-Jun-14 13:25N 59°41' E 028°26'0 0.0
2018-Jun-14 12:57N 59°41' E 028°26'0 0.0
2018-Jun-14 12:29N 59°41' E 028°26'0 0.0
2018-Jun-14 11:59N 59°41' E 028°26'0 0.0
2018-Jun-14 11:28N 59°41' E 028°26'0 0.0
2018-Jun-14 10:58N 59°41' E 028°26'0 0.0
2018-Jun-14 10:28N 59°42' E 028°26'0 0.0
2018-Jun-14 09:58N 59°41' E 028°26'0 0.0
2018-Jun-14 09:25N 59°41' E 028°26'0 0.0
2018-Jun-14 08:54N 59°41' E 028°26'0 0.0
2018-Jun-14 08:29N 59°42' E 028°26'0 0.0
2018-Jun-14 07:53N 59°42' E 028°26'0 0.0
2018-Jun-14 07:28N 59°41' E 028°26'0 0.0
2018-Jun-14 06:58N 59°41' E 028°26'0 0.0
2018-Jun-14 06:28N 59°41' E 028°26'0 0.0
2018-Jun-14 05:58N 59°41' E 028°26'0 0.0
2018-Jun-14 05:28N 59°42' E 028°26'0 0.0
2018-Jun-14 04:59N 59°42' E 028°26'0 0.0
2018-Jun-14 04:28N 59°41' E 028°26'0 0.0
2018-Jun-14 03:57N 59°42' E 028°26'0 0.0
2018-Jun-14 03:28N 59°41' E 028°26'0 0.0
2018-Jun-14 02:58N 59°42' E 028°26'0 0.0
2018-Jun-14 02:27N 59°42' E 028°26'0 0.0
2018-Jun-14 02:00N 59°41' E 028°26'0 0.0
2018-Jun-14 01:25N 59°41' E 028°26'0 0.0
2018-Jun-14 00:52N 59°41' E 028°26'0 0.0
2018-Jun-14 00:27N 59°42' E 028°26'0 0.0
2018-Jun-13 23:58N 59°41' E 028°26'0 0.0
2018-Jun-13 23:28N 59°42' E 028°26'0 0.0
2018-Jun-13 22:58N 59°41' E 028°26'0 0.0
2018-Jun-13 22:29N 59°41' E 028°26'0 0.0
2018-Jun-13 21:56N 59°41' E 028°26'0 0.0
2018-Jun-13 21:28N 59°41' E 028°26'0 0.0
2018-Jun-13 20:58N 59°41' E 028°26'0 0.0
2018-Jun-13 20:25N 59°41' E 028°26'0 0.0
2018-Jun-13 19:58N 59°42' E 028°26'0 0.0
2018-Jun-13 19:28N 59°42' E 028°26'0 0.0
2018-Jun-13 18:58N 59°42' E 028°26'0 0.0
2018-Jun-13 18:29N 59°42' E 028°26'0 0.0
2018-Jun-13 17:59N 59°42' E 028°26'0 0.0
2018-Jun-13 17:29N 59°42' E 028°26'0 0.0
2018-Jun-13 16:58N 59°42' E 028°26'0 0.0
2018-Jun-13 16:28N 59°42' E 028°26'0 0.0
2018-Jun-13 15:59N 59°42' E 028°26'0 0.0
2018-Jun-13 15:28N 59°42' E 028°26'0 0.0
2018-Jun-13 14:59N 59°42' E 028°26'0 0.1
2018-Jun-13 14:30N 59°42' E 028°26'1 1.4
2018-Jun-13 14:00N 59°42' E 028°24'4 7.2
2018-Jun-13 13:30N 59°45' E 028°24'611.8
2018-Jun-13 13:00N 59°51' E 028°26'611.4
2018-Jun-13 12:30N 59°54' E 028°36'0 0.7
2018-Jun-13 11:59N 59°54' E 028°37'0 0.0
2018-Jun-13 11:29N 59°54' E 028°37'0 0.0
2018-Jun-13 10:58N 59°54' E 028°37'0 0.0
2018-Jun-13 10:28N 59°54' E 028°37'0 0.0
2018-Jun-13 09:58N 59°54' E 028°37'0 0.0
2018-Jun-13 09:30N 59°54' E 028°37'0 0.0
2018-Jun-13 08:59N 59°54' E 028°37'0 0.0
2018-Jun-13 08:28N 59°54' E 028°37'0 0.0
2018-Jun-13 07:58N 59°54' E 028°37'0 0.1
2018-Jun-13 07:30N 59°54' E 028°37'0 0.1
2018-Jun-13 06:58N 59°54' E 028°37'0 0.1
2018-Jun-13 06:28N 59°54' E 028°37'0 0.1
2018-Jun-13 05:58N 59°54' E 028°37'0 0.1
2018-Jun-13 05:30N 59°54' E 028°37'0 0.1
2018-Jun-13 04:59N 59°54' E 028°37'0 0.0
2018-Jun-13 04:19N 59°54' E 028°36'0 0.0
2018-Jun-13 03:59N 59°54' E 028°36'0 0.0
2018-Jun-13 03:28N 59°54' E 028°37'0 0.0
2018-Jun-13 03:00N 59°54' E 028°37'0 0.0
2018-Jun-13 02:28N 59°54' E 028°37'0 0.0
2018-Jun-13 01:58N 59°54' E 028°36'0 0.0
2018-Jun-13 01:28N 59°54' E 028°36'0 0.1
2018-Jun-13 00:55N 59°54' E 028°36'0 0.1
2018-Jun-13 00:29N 59°54' E 028°36'0 0.1
2018-Jun-12 23:54N 59°54' E 028°36'0 0.0
2018-Jun-12 23:26N 59°54' E 028°36'0 0.0
2018-Jun-12 22:59N 59°54' E 028°36'0 0.0
2018-Jun-12 22:25N 59°54' E 028°37'0 0.0
2018-Jun-12 21:58N 59°54' E 028°37'0 0.0
2018-Jun-12 21:28N 59°54' E 028°37'0 0.0
2018-Jun-12 21:00N 59°54' E 028°37'0 0.0
2018-Jun-12 20:28N 59°54' E 028°37'0 0.0
2018-Jun-12 19:58N 59°54' E 028°37'0 0.0
2018-Jun-12 19:28N 59°54' E 028°37'0 0.1
2018-Jun-12 18:58N 59°54' E 028°37'0 0.1
2018-Jun-12 18:28N 59°54' E 028°37'0 0.0
2018-Jun-12 17:58N 59°54' E 028°37'0 0.0
2018-Jun-12 17:28N 59°54' E 028°37'0 0.0
2018-Jun-12 16:58N 59°54' E 028°37'0 0.0
2018-Jun-12 16:28N 59°54' E 028°37'0 0.0
2018-Jun-12 15:58N 59°54' E 028°37'0 0.0
2018-Jun-12 15:30N 59°54' E 028°37'0 0.0
2018-Jun-12 14:59N 59°54' E 028°37'0 0.0
2018-Jun-12 14:28N 59°54' E 028°37'0 0.0
2018-Jun-12 13:57N 59°54' E 028°37'0 0.0
2018-Jun-12 13:26N 59°54' E 028°37'0 0.0
2018-Jun-12 12:56N 59°54' E 028°37'0 0.0
2018-Jun-12 12:25N 59°54' E 028°37'0 0.0
2018-Jun-12 12:00N 59°54' E 028°37'0 0.0
2018-Jun-12 11:26N 59°54' E 028°37'0 0.0
2018-Jun-12 10:58N 59°54' E 028°37'0 0.0
2018-Jun-12 10:29N 59°54' E 028°37'0 0.0
2018-Jun-12 09:58N 59°54' E 028°37'0 0.0
2018-Jun-12 09:30N 59°54' E 028°37'0 0.0
2018-Jun-12 08:55N 59°54' E 028°37'0 0.0
2018-Jun-12 08:28N 59°54' E 028°37'0 0.0
2018-Jun-12 07:58N 59°54' E 028°37'0 0.1
2018-Jun-12 07:28N 59°54' E 028°37'0 0.1
2018-Jun-12 07:00N 59°54' E 028°37'0 0.0
2018-Jun-12 06:28N 59°54' E 028°37'0 0.4
2018-Jun-12 05:58N 59°54' E 028°37'3 6.5
2018-Jun-12 05:30N 59°57' E 028°35'5 9.9
2018-Jun-12 05:00N 60°02' E 028°35'611.4
2018-Jun-12 04:31N 60°03' E 028°24'611.9
2018-Jun-12 04:00N 60°07' E 028°15'611.7
2018-Jun-12 03:30N 60°09' E 028°03'611.7
2018-Jun-12 03:00N 60°10' E 027°52'510.6
2018-Jun-12 02:30N 60°09' E 027°41'611.1
2018-Jun-12 02:00N 60°06' E 027°32'611.4
2018-Jun-12 01:30N 60°03' E 027°22'611.9
2018-Jun-12 00:59N 60°00' E 027°11'611.6
2018-Jun-12 00:29N 59°58' E 027°01'612.1
2018-Jun-12 00:00N 59°59' E 026°49'612.2
2018-Jun-11 23:30N 59°59' E 026°37'612.2
2018-Jun-11 23:00N 59°57' E 026°26'612.1
2018-Jun-11 22:30N 59°55' E 026°14'612.3
2018-Jun-11 22:00N 59°54' E 026°03'712.1
2018-Jun-11 21:24N 59°52' E 025°48'612.4
2018-Jun-11 20:52N 59°50' E 025°36'812.1
2018-Jun-11 20:13N 59°49' E 025°20'312.1
2018-Jun-11 19:58N 59°48' E 025°14'612.1
2018-Jun-11 19:30N 59°47' E 025°04'612.1
2018-Jun-11 19:00N 59°45' E 024°52'612.3
2018-Jun-11 18:30N 59°44' E 024°40'612.2
2018-Jun-11 18:00N 59°43' E 024°28'612.3
2018-Jun-11 17:30N 59°41' E 024°16'812.3
2018-Jun-11 16:50N 59°39' E 024°01'412.3
2018-Jun-11 16:31N 59°37' E 023°53'612.2
2018-Jun-11 16:01N 59°35' E 023°42'612.5
2018-Jun-11 15:30N 59°33' E 023°30'612.3
2018-Jun-11 15:00N 59°31' E 023°19'612.3
2018-Jun-11 14:30N 59°29' E 023°07'712.4
2018-Jun-11 13:57N 59°27' E 022°55'2912.0
2018-Jun-11 11:34N 59°12' E 022°06'112.1
2018-Jun-11 11:29N 59°11' E 022°05'911.9
2018-Jun-11 10:45N 59°06' E 021°52'1011.7
2018-Jun-11 09:56N 58°58' E 021°40'2511.8
2018-Jun-11 07:50N 58°39' E 021°11'412.0
2018-Jun-11 07:30N 58°36' E 021°06'612.0
2018-Jun-11 07:00N 58°31' E 020°59'712.0
2018-Jun-11 06:27N 58°26' E 020°51'912.2
2018-Jun-11 05:41N 58°19' E 020°40'1112.2
2018-Jun-11 04:48N 58°10' E 020°26'  
Track history (hours):
 
Tides and Currents Weather Stations Pressure Air Temp Water Temp Dewpoint Dewpoint Depression Visibility Wind Speed Wind Dir Waves Ship Positions

All Star Atlas

Last reported at 2018-Jun-21 00:54 UTC. Time now 2018-Jun-23 15:52 UTC.
Position N 58°42' W 003°49'.

Length 199 m; draft 10.8 m.

Type: Cargo ship. MMSI: 355737000.

Date/timePositionNaut miles runAvg speedWind from/ knotsBaromVisibWave heightAir tempDewpointWater temp
2018-Jun-21 00:54N 58°42' W 003°49'11 9.7
2018-Jun-20 23:48N 58°43' W 003°29'310.4
2018-Jun-20 23:31N 58°43' W 003°23'611.2
2018-Jun-20 23:01N 58°43' W 003°12'612.4
2018-Jun-20 22:30N 58°43' W 003°00'612.2
2018-Jun-20 22:01N 58°43' W 002°49'611.4
2018-Jun-20 21:30N 58°42' W 002°38'29110.3
2018-Jun-19 17:04N 57°49' E 006°27'3 8.6
2018-Jun-19 16:42N 57°49' E 006°33'2 8.4
2018-Jun-19 16:30N 57°48' E 006°36'4 8.3
2018-Jun-19 16:00N 57°47' E 006°44'4 8.7
2018-Jun-19 15:30N 57°47' E 006°52'4 8.8
2018-Jun-19 15:00N 57°47' E 007°00'5 9.4
2018-Jun-19 14:30N 57°47' E 007°09'5 9.8
2018-Jun-19 14:00N 57°47' E 007°18'5 9.8
2018-Jun-19 13:30N 57°47' E 007°28'510.1
2018-Jun-19 13:00N 57°47' E 007°37'510.1
2018-Jun-19 12:29N 57°47' E 007°47'510.1
2018-Jun-19 12:01N 57°47' E 007°56'510.1
2018-Jun-19 11:30N 57°47' E 008°06'610.0
2018-Jun-19 10:53N 57°47' E 008°17'81 9.1
2018-Jun-19 02:02N 57°47' E 010°48'010.4
2018-Jun-19 01:59N 57°47' E 010°49'510.0
2018-Jun-19 01:30N 57°43' E 010°55'510.5
2018-Jun-19 01:01N 57°40' E 011°02'510.5
2018-Jun-19 00:30N 57°36' E 011°09'510.4
2018-Jun-18 23:59N 57°32' E 011°16'5 9.9
2018-Jun-18 23:31N 57°29' E 011°23'5 9.6
2018-Jun-18 23:01N 57°25' E 011°27'510.2
2018-Jun-18 22:30N 57°20' E 011°31'510.2
2018-Jun-18 22:00N 57°15' E 011°34'118 9.7
2018-Jun-18 09:49N 55°19' E 011°03'410.8
2018-Jun-18 09:25N 55°15' E 011°05'4 9.3
2018-Jun-18 09:00N 55°11' E 011°04'510.2
2018-Jun-18 08:30N 55°07' E 010°59'511.0
2018-Jun-18 08:00N 55°01' E 010°59'510.3
2018-Jun-18 07:30N 54°57' E 010°55'510.2
2018-Jun-18 07:00N 54°52' E 010°50'5 9.6
2018-Jun-18 06:30N 54°48' E 010°50'510.5
2018-Jun-18 06:00N 54°43' E 010°47'510.0
2018-Jun-18 05:30N 54°39' E 010°52'510.0
2018-Jun-18 05:00N 54°36' E 010°60'510.1
2018-Jun-18 04:30N 54°36' E 011°09'510.5
2018-Jun-18 04:01N 54°34' E 011°17'610.9
2018-Jun-18 03:30N 54°32' E 011°25'510.8
2018-Jun-18 03:01N 54°29' E 011°34'510.6
2018-Jun-18 02:30N 54°27' E 011°42'510.7
2018-Jun-18 02:00N 54°26' E 011°51'511.0
2018-Jun-18 01:30N 54°26' E 012°00'511.0
2018-Jun-18 01:00N 54°26' E 012°10'510.4
2018-Jun-18 00:30N 54°31' E 012°14'510.2
2018-Jun-18 00:00N 54°36' E 012°17'5 9.7
2018-Jun-17 23:28N 54°39' E 012°24'510.3
2018-Jun-17 22:57N 54°42' E 012°31'3811.0
2018-Jun-17 19:33N 54°57' E 013°31'111.1
2018-Jun-17 19:28N 54°57' E 013°33'511.0
2018-Jun-17 19:00N 54°59' E 013°41'1411.1
2018-Jun-17 17:42N 55°05' E 014°04'210.9
2018-Jun-17 17:30N 55°07' E 014°07'511.0
2018-Jun-17 17:00N 55°11' E 014°13'510.8
2018-Jun-17 16:30N 55°15' E 014°20'510.8
2018-Jun-17 16:00N 55°19' E 014°26'610.8
2018-Jun-17 15:30N 55°23' E 014°32'510.6
2018-Jun-17 15:01N 55°27' E 014°39'510.5
2018-Jun-17 14:30N 55°29' E 014°47'510.2
2018-Jun-17 14:00N 55°32' E 014°55'510.3
2018-Jun-17 13:30N 55°34' E 015°02'610.4
2018-Jun-17 12:53N 55°37' E 015°13'510.7
2018-Jun-17 12:26N 55°39' E 015°20'710.9
2018-Jun-17 11:49N 55°41' E 015°32'4711.1
2018-Jun-17 07:36N 55°52' E 016°52'211.2
2018-Jun-17 07:26N 55°53' E 016°55'611.3
2018-Jun-17 06:52N 55°55' E 017°06'711.3
2018-Jun-17 06:16N 55°56' E 017°18'511.3
2018-Jun-17 05:48N 55°58' E 017°27'411.2
2018-Jun-17 05:29N 55°59' E 017°33'511.2
2018-Jun-17 05:01N 56°00' E 017°42'611.3
2018-Jun-17 04:30N 56°03' E 017°51'611.2
2018-Jun-17 04:00N 56°06' E 017°59'611.2
2018-Jun-17 03:30N 56°09' E 018°08'611.3
2018-Jun-17 03:00N 56°12' E 018°16'611.3
2018-Jun-17 02:31N 56°15' E 018°25'611.3
2018-Jun-17 02:00N 56°18' E 018°34'611.3
2018-Jun-17 01:30N 56°21' E 018°42'510.8
2018-Jun-17 01:00N 56°26' E 018°48'511.1
2018-Jun-17 00:30N 56°31' E 018°53'611.1
2018-Jun-17 00:00N 56°36' E 018°57'611.3
2018-Jun-16 23:30N 56°41' E 019°02'1011.3
2018-Jun-16 22:39N 56°49' E 019°11'211.4
2018-Jun-16 22:30N 56°51' E 019°12'9911.3
2018-Jun-16 13:43N 58°19' E 020°35'211.3
2018-Jun-16 13:30N 58°22' E 020°38'611.4
2018-Jun-16 12:59N 58°26' E 020°44'1511.5
2018-Jun-16 11:41N 58°39' E 020°59'311.5
2018-Jun-16 11:27N 58°41' E 021°02'611.4
2018-Jun-16 10:57N 58°46' E 021°08'6 8.3
2018-Jun-16 10:17N 58°51' E 021°15'2 9.0
2018-Jun-16 10:00N 58°52' E 021°18'611.3
2018-Jun-16 09:30N 58°57' E 021°24'611.3
2018-Jun-16 09:00N 59°02' E 021°30'611.1
2018-Jun-16 08:30N 59°06' E 021°37'611.0
2018-Jun-16 08:00N 59°10' E 021°44'511.0
2018-Jun-16 07:30N 59°14' E 021°53'611.0
2018-Jun-16 07:00N 59°17' E 022°01'511.0
2018-Jun-16 06:30N 59°20' E 022°10'611.1
2018-Jun-16 06:00N 59°24' E 022°18'611.0
2018-Jun-16 05:30N 59°27' E 022°27'510.9
2018-Jun-16 05:00N 59°30' E 022°36'611.1
2018-Jun-16 04:29N 59°31' E 022°47'510.9
2018-Jun-16 04:00N 59°33' E 022°57'511.0
2018-Jun-16 03:30N 59°35' E 023°07'511.0
2018-Jun-16 03:00N 59°36' E 023°18'511.0
2018-Jun-16 02:30N 59°38' E 023°28'611.0
2018-Jun-16 02:00N 59°39' E 023°39'611.1
2018-Jun-16 01:30N 59°41' E 023°49'511.0
2018-Jun-16 01:00N 59°42' E 023°59'510.9
2018-Jun-16 00:30N 59°44' E 024°10'611.1
2018-Jun-16 00:00N 59°46' E 024°20'611.2
2018-Jun-15 23:30N 59°47' E 024°31'611.3
2018-Jun-15 23:00N 59°48' E 024°42'510.9
2018-Jun-15 22:31N 59°50' E 024°53'611.1
2018-Jun-15 22:00N 59°51' E 025°03'611.2
2018-Jun-15 21:30N 59°52' E 025°14'511.0
2018-Jun-15 21:00N 59°53' E 025°25'611.0
2018-Jun-15 20:30N 59°54' E 025°36'510.9
2018-Jun-15 20:00N 59°55' E 025°47'710.9
2018-Jun-15 19:22N 59°56' E 025°60'410.8
2018-Jun-15 18:59N 59°57' E 026°08'510.7
2018-Jun-15 18:30N 59°59' E 026°18'610.7
2018-Jun-15 17:58N 60°00' E 026°29'510.6
2018-Jun-15 17:30N 60°01' E 026°39'611.2
2018-Jun-15 16:59N 60°00' E 026°50'612.2
2018-Jun-15 16:28N 59°60' E 027°03'511.0
2018-Jun-15 15:58N 60°02' E 027°12'4 9.6
2018-Jun-15 15:30N 60°05' E 027°20'511.0
2018-Jun-15 15:00N 60°07' E 027°30'611.2
2018-Jun-15 14:30N 60°10' E 027°39'510.6
2018-Jun-15 14:00N 60°12' E 027°50'611.1
2018-Jun-15 13:30N 60°10' E 028°00'611.0
2018-Jun-15 13:00N 60°09' E 028°11'510.9
2018-Jun-15 12:30N 60°06' E 028°21'611.1
2018-Jun-15 12:00N 60°04' E 028°31'4 8.1
2018-Jun-15 11:30N 60°01' E 028°37'510.5
2018-Jun-15 11:00N 59°56' E 028°34'5 9.5
2018-Jun-15 10:30N 59°52' E 028°29'611.7
2018-Jun-15 10:00N 59°47' E 028°25'4 7.7
2018-Jun-15 09:30N 59°43' E 028°25'1 2.4
2018-Jun-15 09:00N 59°41' E 028°26'0 0.0
2018-Jun-15 08:29N 59°42' E 028°26'0 0.0
2018-Jun-15 07:58N 59°41' E 028°26'0 0.0
2018-Jun-15 07:22N 59°42' E 028°26'0 0.0
2018-Jun-15 07:00N 59°41' E 028°26'0 0.0
2018-Jun-15 06:25N 59°42' E 028°26'0 0.0
2018-Jun-15 05:58N 59°41' E 028°26'0 0.0
2018-Jun-15 05:22N 59°42' E 028°26'0 0.0
2018-Jun-15 04:58N 59°42' E 028°26'0 0.0
2018-Jun-15 04:29N 59°41' E 028°26'0 0.0
2018-Jun-15 03:59N 59°42' E 028°26'0 0.0
2018-Jun-15 03:25N 59°41' E 028°26'0 0.0
2018-Jun-15 02:58N 59°42' E 028°26'0 0.0
2018-Jun-15 02:29N 59°41' E 028°26'0 0.0
2018-Jun-15 02:00N 59°41' E 028°26'0 0.0
2018-Jun-15 01:28N 59°42' E 028°26'0 0.0
2018-Jun-15 00:58N 59°42' E 028°26'0 0.0
2018-Jun-15 00:28N 59°42' E 028°26'0 0.0
2018-Jun-14 23:58N 59°41' E 028°26'0 0.0
2018-Jun-14 23:27N 59°42' E 028°26'0 0.0
2018-Jun-14 22:58N 59°41' E 028°26'0 0.0
2018-Jun-14 22:28N 59°42' E 028°26'0 0.0
2018-Jun-14 21:58N 59°41' E 028°26'0 0.0
2018-Jun-14 21:28N 59°41' E 028°26'0 0.0
2018-Jun-14 20:58N 59°42' E 028°26'0 0.0
2018-Jun-14 20:28N 59°42' E 028°26'0 0.0
2018-Jun-14 19:58N 59°41' E 028°26'0 0.0
2018-Jun-14 19:28N 59°41' E 028°26'0 0.0
2018-Jun-14 18:58N 59°42' E 028°26'0 0.0
2018-Jun-14 18:26N 59°41' E 028°26'0 0.0
2018-Jun-14 18:00N 59°42' E 028°26'0 0.0
2018-Jun-14 17:28N 59°41' E 028°26'0 0.0
2018-Jun-14 16:58N 59°41' E 028°26'0 0.0
2018-Jun-14 16:27N 59°41' E 028°26'0 0.0
2018-Jun-14 15:56N 59°42' E 028°26'0 0.0
2018-Jun-14 15:24N 59°41' E 028°26'0 0.0
2018-Jun-14 14:56N 59°41' E 028°26'0 0.0
2018-Jun-14 14:25N 59°42' E 028°26'0 0.0
2018-Jun-14 13:59N 59°41' E 028°26'0 0.0
2018-Jun-14 13:25N 59°41' E 028°26'0 0.0
2018-Jun-14 12:57N 59°41' E 028°26'0 0.0
2018-Jun-14 12:29N 59°41' E 028°26'0 0.0
2018-Jun-14 11:59N 59°41' E 028°26'0 0.0
2018-Jun-14 11:28N 59°41' E 028°26'0 0.0
2018-Jun-14 10:58N 59°41' E 028°26'0 0.0
2018-Jun-14 10:28N 59°42' E 028°26'0 0.0
2018-Jun-14 09:58N 59°41' E 028°26'0 0.0
2018-Jun-14 09:25N 59°41' E 028°26'0 0.0
2018-Jun-14 08:54N 59°41' E 028°26'0 0.0
2018-Jun-14 08:29N 59°42' E 028°26'0 0.0
2018-Jun-14 07:53N 59°42' E 028°26'0 0.0
2018-Jun-14 07:28N 59°41' E 028°26'0 0.0
2018-Jun-14 06:58N 59°41' E 028°26'0 0.0
2018-Jun-14 06:28N 59°41' E 028°26'0 0.0
2018-Jun-14 05:58N 59°41' E 028°26'0 0.0
2018-Jun-14 05:28N 59°42' E 028°26'0 0.0
2018-Jun-14 04:59N 59°42' E 028°26'0 0.0
2018-Jun-14 04:28N 59°41' E 028°26'0 0.0
2018-Jun-14 03:57N 59°42' E 028°26'0 0.0
2018-Jun-14 03:28N 59°41' E 028°26'0 0.0
2018-Jun-14 02:58N 59°42' E 028°26'0 0.0
2018-Jun-14 02:27N 59°42' E 028°26'0 0.0
2018-Jun-14 02:00N 59°41' E 028°26'0 0.0
2018-Jun-14 01:25N 59°41' E 028°26'0 0.0
2018-Jun-14 00:52N 59°41' E 028°26'0 0.0
2018-Jun-14 00:27N 59°42' E 028°26'0 0.0
2018-Jun-13 23:58N 59°41' E 028°26'0 0.0
2018-Jun-13 23:28N 59°42' E 028°26'0 0.0
2018-Jun-13 22:58N 59°41' E 028°26'0 0.0
2018-Jun-13 22:29N 59°41' E 028°26'0 0.0
2018-Jun-13 21:56N 59°41' E 028°26'0 0.0
2018-Jun-13 21:28N 59°41' E 028°26'0 0.0
2018-Jun-13 20:58N 59°41' E 028°26'0 0.0
2018-Jun-13 20:25N 59°41' E 028°26'0 0.0
2018-Jun-13 19:58N 59°42' E 028°26'0 0.0
2018-Jun-13 19:28N 59°42' E 028°26'0 0.0
2018-Jun-13 18:58N 59°42' E 028°26'0 0.0
2018-Jun-13 18:29N 59°42' E 028°26'0 0.0
2018-Jun-13 17:59N 59°42' E 028°26'0 0.0
2018-Jun-13 17:29N 59°42' E 028°26'0 0.0
2018-Jun-13 16:58N 59°42' E 028°26'0 0.0
2018-Jun-13 16:28N 59°42' E 028°26'0 0.0
2018-Jun-13 15:59N 59°42' E 028°26'0 0.0
2018-Jun-13 15:28N 59°42' E 028°26'0 0.0
2018-Jun-13 14:59N 59°42' E 028°26'0 0.1
2018-Jun-13 14:30N 59°42' E 028°26'1 1.4
2018-Jun-13 14:00N 59°42' E 028°24'4 7.2
2018-Jun-13 13:30N 59°45' E 028°24'611.8
2018-Jun-13 13:00N 59°51' E 028°26'611.4
2018-Jun-13 12:30N 59°54' E 028°36'0 0.7
2018-Jun-13 11:59N 59°54' E 028°37'0 0.0
2018-Jun-13 11:29N 59°54' E 028°37'0 0.0
2018-Jun-13 10:58N 59°54' E 028°37'0 0.0
2018-Jun-13 10:28N 59°54' E 028°37'0 0.0
2018-Jun-13 09:58N 59°54' E 028°37'0 0.0
2018-Jun-13 09:30N 59°54' E 028°37'0 0.0
2018-Jun-13 08:59N 59°54' E 028°37'0 0.0
2018-Jun-13 08:28N 59°54' E 028°37'0 0.0
2018-Jun-13 07:58N 59°54' E 028°37'0 0.1
2018-Jun-13 07:30N 59°54' E 028°37'0 0.1
2018-Jun-13 06:58N 59°54' E 028°37'0 0.1
2018-Jun-13 06:28N 59°54' E 028°37'0 0.1
2018-Jun-13 05:58N 59°54' E 028°37'0 0.1
2018-Jun-13 05:30N 59°54' E 028°37'0 0.1
2018-Jun-13 04:59N 59°54' E 028°37'0 0.0
2018-Jun-13 04:19N 59°54' E 028°36'0 0.0
2018-Jun-13 03:59N 59°54' E 028°36'0 0.0
2018-Jun-13 03:28N 59°54' E 028°37'0 0.0
2018-Jun-13 03:00N 59°54' E 028°37'0 0.0
2018-Jun-13 02:28N 59°54' E 028°37'0 0.0
2018-Jun-13 01:58N 59°54' E 028°36'0 0.0
2018-Jun-13 01:28N 59°54' E 028°36'0 0.1
2018-Jun-13 00:55N 59°54' E 028°36'0 0.1
2018-Jun-13 00:29N 59°54' E 028°36'0 0.1
2018-Jun-12 23:54N 59°54' E 028°36'0 0.0
2018-Jun-12 23:26N 59°54' E 028°36'0 0.0
2018-Jun-12 22:59N 59°54' E 028°36'0 0.0
2018-Jun-12 22:25N 59°54' E 028°37'0 0.0
2018-Jun-12 21:58N 59°54' E 028°37'0 0.0
2018-Jun-12 21:28N 59°54' E 028°37'0 0.0
2018-Jun-12 21:00N 59°54' E 028°37'0 0.0
2018-Jun-12 20:28N 59°54' E 028°37'0 0.0
2018-Jun-12 19:58N 59°54' E 028°37'0 0.0
2018-Jun-12 19:28N 59°54' E 028°37'0 0.1
2018-Jun-12 18:58N 59°54' E 028°37'0 0.1
2018-Jun-12 18:28N 59°54' E 028°37'0 0.0
2018-Jun-12 17:58N 59°54' E 028°37'0 0.0
2018-Jun-12 17:28N 59°54' E 028°37'0 0.0
2018-Jun-12 16:58N 59°54' E 028°37'0 0.0
2018-Jun-12 16:28N 59°54' E 028°37'0 0.0
2018-Jun-12 15:58N 59°54' E 028°37'0 0.0
2018-Jun-12 15:30N 59°54' E 028°37'0 0.0
2018-Jun-12 14:59N 59°54' E 028°37'0 0.0
2018-Jun-12 14:28N 59°54' E 028°37'0 0.0
2018-Jun-12 13:57N 59°54' E 028°37'0 0.0
2018-Jun-12 13:26N 59°54' E 028°37'0 0.0
2018-Jun-12 12:56N 59°54' E 028°37'0 0.0
2018-Jun-12 12:25N 59°54' E 028°37'0 0.0
2018-Jun-12 12:00N 59°54' E 028°37'0 0.0
2018-Jun-12 11:26N 59°54' E 028°37'0 0.0
2018-Jun-12 10:58N 59°54' E 028°37'0 0.0
2018-Jun-12 10:29N 59°54' E 028°37'0 0.0
2018-Jun-12 09:58N 59°54' E 028°37'0 0.0
2018-Jun-12 09:30N 59°54' E 028°37'0 0.0
2018-Jun-12 08:55N 59°54' E 028°37'0 0.0
2018-Jun-12 08:28N 59°54' E 028°37'0 0.0
2018-Jun-12 07:58N 59°54' E 028°37'0 0.1
2018-Jun-12 07:28N 59°54' E 028°37'0 0.1
2018-Jun-12 07:00N 59°54' E 028°37'0 0.0
2018-Jun-12 06:28N 59°54' E 028°37'0 0.4
2018-Jun-12 05:58N 59°54' E 028°37'3 6.5
2018-Jun-12 05:30N 59°57' E 028°35'5 9.9
2018-Jun-12 05:00N 60°02' E 028°35'611.4
2018-Jun-12 04:31N 60°03' E 028°24'611.9
2018-Jun-12 04:00N 60°07' E 028°15'611.7
2018-Jun-12 03:30N 60°09' E 028°03'611.7
2018-Jun-12 03:00N 60°10' E 027°52'510.6
2018-Jun-12 02:30N 60°09' E 027°41'611.1
2018-Jun-12 02:00N 60°06' E 027°32'611.4
2018-Jun-12 01:30N 60°03' E 027°22'611.9
2018-Jun-12 00:59N 60°00' E 027°11'611.6
2018-Jun-12 00:29N 59°58' E 027°01'612.1
2018-Jun-12 00:00N 59°59' E 026°49'612.2
2018-Jun-11 23:30N 59°59' E 026°37'612.2
2018-Jun-11 23:00N 59°57' E 026°26'612.1
2018-Jun-11 22:30N 59°55' E 026°14'612.3
2018-Jun-11 22:00N 59°54' E 026°03'712.1
2018-Jun-11 21:24N 59°52' E 025°48'612.4
2018-Jun-11 20:52N 59°50' E 025°36'812.1
2018-Jun-11 20:13N 59°49' E 025°20'312.1
2018-Jun-11 19:58N 59°48' E 025°14'612.1
2018-Jun-11 19:30N 59°47' E 025°04'612.1
2018-Jun-11 19:00N 59°45' E 024°52'612.3
2018-Jun-11 18:30N 59°44' E 024°40'612.2
2018-Jun-11 18:00N 59°43' E 024°28'612.3
2018-Jun-11 17:30N 59°41' E 024°16'812.3
2018-Jun-11 16:50N 59°39' E 024°01'412.3
2018-Jun-11 16:31N 59°37' E 023°53'612.2
2018-Jun-11 16:01N 59°35' E 023°42'612.5
2018-Jun-11 15:30N 59°33' E 023°30'612.3
2018-Jun-11 15:00N 59°31' E 023°19'612.3
2018-Jun-11 14:30N 59°29' E 023°07'712.4
2018-Jun-11 13:57N 59°27' E 022°55'2912.0
2018-Jun-11 11:34N 59°12' E 022°06'112.1
2018-Jun-11 11:29N 59°11' E 022°05'911.9
2018-Jun-11 10:45N 59°06' E 021°52'1011.7
2018-Jun-11 09:56N 58°58' E 021°40'2511.8
2018-Jun-11 07:50N 58°39' E 021°11'412.0
2018-Jun-11 07:30N 58°36' E 021°06'612.0
2018-Jun-11 07:00N 58°31' E 020°59'712.0
2018-Jun-11 06:27N 58°26' E 020°51'912.2
2018-Jun-11 05:41N 58°19' E 020°40'1112.2
2018-Jun-11 04:48N 58°10' E 020°26'  

Dump ship's entire track history